Time;durP1;ratioP1;P1;durP2;ratioP2;P2;SDS_P1;SDS_P2;PMS_P1;PMS_P2;Temp;Humidity;BMP_temperature;BMP_pressure;BME280_temperature;BME280_humidity;BME280_pressure;Samples;Min_cycle;Max_cycle;Signal;HPM_P1;HPM_P2
2023/03/18 00:00:34;;;;;;;3.60;1.93;;;8.70;99.90;;;;;;5029784;28;20430;-69
2023/03/18 00:03:03;;;;;;;1.50;1.30;;;8.70;99.90;;;;;;5031137;28;20445;-69
2023/03/18 00:05:30;;;;;;;1.97;1.77;;;8.80;99.90;;;;;;5029847;28;20427;-69
2023/03/18 00:08:00;;;;;;;2.00;1.73;;;8.80;99.90;;;;;;5029335;28;20435;-70
2023/03/18 00:10:27;;;;;;;1.80;1.70;;;8.80;99.90;;;;;;5030817;28;20442;-69
2023/03/18 00:12:58;;;;;;;1.63;1.33;;;8.80;99.90;;;;;;5030850;28;20438;-70
2023/03/18 00:15:28;;;;;;;2.72;1.67;;;8.80;99.90;;;;;;5030286;28;20505;-69
2023/03/18 00:17:57;;;;;;;2.40;1.10;;;8.80;99.90;;;;;;5029174;28;20422;-69
2023/03/18 00:20:37;;;;;;;1.75;1.30;;;8.70;99.90;;;;;;5028354;28;20522;-69
2023/03/18 00:23:07;;;;;;;2.72;1.50;;;8.80;99.90;;;;;;5031258;28;20522;-69
2023/03/18 00:25:34;;;;;;;1.77;1.33;;;8.80;99.90;;;;;;5030883;28;20427;-69
2023/03/18 00:28:02;;;;;;;1.73;1.63;;;8.70;99.90;;;;;;5028668;28;20466;-69
2023/03/18 00:30:29;;;;;;;1.92;1.77;;;8.70;99.90;;;;;;5030405;28;20434;-69
2023/03/18 00:32:57;;;;;;;3.08;1.55;;;8.70;99.90;;;;;;5030831;28;20963;-69
2023/03/18 00:35:29;;;;;;;3.13;1.65;;;8.60;99.90;;;;;;5027803;28;20514;-70
2023/03/18 00:38:02;;;;;;;1.70;1.60;;;8.60;99.90;;;;;;5029932;28;20515;-69
2023/03/18 00:40:41;;;;;;;0.77;0.77;;;8.50;99.90;;;;;;5030603;28;20473;-69
2023/03/18 00:43:11;;;;;;;1.60;1.35;;;8.40;99.90;;;;;;5030800;28;20493;-70
2023/03/18 00:45:41;;;;;;;1.40;1.30;;;8.40;99.90;;;;;;5030464;28;20431;-70
2023/03/18 00:48:08;;;;;;;1.93;1.40;;;8.30;99.90;;;;;;5029528;28;20837;-68
2023/03/18 00:50:36;;;;;;;2.05;1.20;;;8.30;99.90;;;;;;5029167;28;20435;-70
2023/03/18 00:53:03;;;;;;;2.00;1.55;;;8.30;99.90;;;;;;5030368;28;20635;-70
2023/03/18 00:55:30;;;;;;;2.03;1.70;;;8.20;99.90;;;;;;5030051;28;20431;-70
2023/03/18 00:57:56;;;;;;;2.15;2.03;;;8.20;99.90;;;;;;5027851;28;20964;-70
2023/03/18 01:00:25;;;;;;;2.20;1.90;;;8.20;99.90;;;;;;5030515;28;20422;-70
2023/03/18 01:02:52;;;;;;;2.15;2.03;;;8.20;99.90;;;;;;5026391;28;20501;-70
2023/03/18 01:05:19;;;;;;;4.63;1.90;;;8.20;99.90;;;;;;5030015;28;20513;-68
2023/03/18 01:07:46;;;;;;;2.17;1.47;;;8.20;99.90;;;;;;5030251;28;20427;-68
2023/03/18 01:10:15;;;;;;;2.20;1.88;;;8.10;99.90;;;;;;5027869;28;20426;-68
2023/03/18 01:12:45;;;;;;;5.53;1.52;;;8.10;99.90;;;;;;5030427;28;20426;-68
2023/03/18 01:15:20;;;;;;;1.55;1.45;;;8.10;99.90;;;;;;5029692;28;20439;-69
2023/03/18 01:17:48;;;;;;;6.78;2.03;;;8.10;99.90;;;;;;5030155;28;20813;-69
2023/03/18 01:20:18;;;;;;;3.10;1.80;;;8.00;99.90;;;;;;5030221;28;20437;-69
2023/03/18 01:22:45;;;;;;;1.95;1.83;;;8.00;99.90;;;;;;5030175;28;20921;-69
2023/03/18 01:25:15;;;;;;;1.35;1.30;;;7.90;99.90;;;;;;5027866;28;20442;-69
2023/03/18 01:27:42;;;;;;;1.15;1.05;;;7.90;99.90;;;;;;5030607;28;20430;-69
2023/03/18 01:30:10;;;;;;;2.90;1.40;;;7.90;99.90;;;;;;5028477;28;20473;-68
2023/03/18 01:32:37;;;;;;;1.27;1.27;;;7.90;99.90;;;;;;5020015;28;20428;-69
2023/03/18 01:35:04;;;;;;;1.48;1.38;;;7.80;99.90;;;;;;5026524;28;20999;-69
2023/03/18 01:37:32;;;;;;;1.95;1.50;;;7.80;99.90;;;;;;5029843;28;20862;-69
2023/03/18 01:39:59;;;;;;;1.00;1.00;;;7.80;99.90;;;;;;5029834;28;20439;-69
2023/03/18 01:42:26;;;;;;;1.60;1.50;;;7.80;1.00;;;;;;5027835;28;20442;-69
2023/03/18 01:45:27;;;;;;;2.00;1.13;;;7.70;1.00;;;;;;5029045;28;20434;-69
2023/03/18 01:47:57;;;;;;;4.57;1.63;;;7.60;1.00;;;;;;5024618;28;20542;-69
2023/03/18 01:50:30;;;;;;;1.48;1.20;;;7.60;15.00;;;;;;5026516;28;20454;-69
2023/03/18 01:53:19;;;;;;;5.60;1.63;;;7.50;99.90;;;;;;5026171;28;20500;-69
2023/03/18 01:55:48;;;;;;;1.65;1.30;;;7.50;99.90;;;;;;5007253;28;20457;-69
2023/03/18 01:58:21;;;;;;;1.50;1.40;;;7.50;99.90;;;;;;5024731;28;20427;-69
2023/03/18 02:00:56;;;;;;;1.75;1.30;;;7.50;1.00;;;;;;5006736;28;20522;-69
2023/03/18 02:03:26;;;;;;;1.08;1.08;;;7.50;93.90;;;;;;5022676;28;20810;-69
2023/03/18 02:05:53;;;;;;;3.50;1.25;;;7.50;99.90;;;;;;5026212;28;20422;-69
2023/03/18 02:08:20;;;;;;;1.33;1.20;;;7.50;99.90;;;;;;5026547;28;20430;-69
2023/03/18 02:10:48;;;;;;;1.83;1.02;;;7.50;99.90;;;;;;5025321;28;20414;-69
2023/03/18 02:13:18;;;;;;;3.03;1.60;;;7.50;99.90;;;;;;5010483;28;20458;-69
2023/03/18 02:15:52;;;;;;;1.52;1.13;;;7.50;99.90;;;;;;5025970;28;20441;-69
2023/03/18 02:18:33;;;;;;;2.15;1.60;;;7.50;1.00;;;;;;5008809;28;20502;-69
2023/03/18 02:21:00;;;;;;;3.53;1.48;;;7.60;1.00;;;;;;5026588;28;20430;-69
2023/03/18 02:23:57;;;;;;;1.55;1.20;;;7.60;1.00;;;;;;5018669;28;20510;-69
2023/03/18 02:26:27;;;;;;;1.02;0.93;;;7.60;1.00;;;;;;5009537;28;20527;-69
2023/03/18 02:28:57;;;;;;;1.75;1.65;;;7.60;1.00;;;;;;5020081;28;20506;-69
2023/03/18 02:31:26;;;;;;;1.15;1.10;;;7.60;1.00;;;;;;5029512;28;20431;-69
2023/03/18 02:33:53;;;;;;;1.33;1.13;;;7.70;1.00;;;;;;5028684;28;20439;-69
2023/03/18 02:36:29;;;;;;;1.25;1.23;;;7.70;1.00;;;;;;5029047;28;20777;-69
2023/03/18 02:38:56;;;;;;;1.60;1.37;;;7.70;6.50;;;;;;5029102;28;20430;-69
2023/03/18 02:41:27;;;;;;;1.35;1.25;;;7.70;82.00;;;;;;5029025;28;20467;-69
2023/03/18 02:43:54;;;;;;;1.45;1.30;;;7.60;99.90;;;;;;5025447;28;20435;-69
2023/03/18 02:46:26;;;;;;;2.10;1.45;;;7.60;99.90;;;;;;5029219;28;20466;-69
2023/03/18 02:48:54;;;;;;;1.08;1.08;;;7.60;99.90;;;;;;5029229;28;20434;-69
2023/03/18 02:51:25;;;;;;;1.67;1.17;;;7.60;99.90;;;;;;5027575;28;20434;-69
2023/03/18 02:53:59;;;;;;;1.45;1.23;;;7.60;99.90;;;;;;5028585;28;20435;-69
2023/03/18 02:56:26;;;;;;;1.13;1.13;;;7.60;99.90;;;;;;5027069;28;20433;-69
2023/03/18 02:58:53;;;;;;;2.15;1.95;;;7.70;99.90;;;;;;5029141;28;20431;-69
2023/03/18 03:01:21;;;;;;;7.63;1.33;;;7.70;99.90;;;;;;5025562;28;20476;-69
2023/03/18 03:03:48;;;;;;;6.15;1.52;;;7.70;99.90;;;;;;5027370;28;20438;-69
2023/03/18 03:06:21;;;;;;;1.17;1.17;;;7.70;99.90;;;;;;5032209;28;20431;-69
2023/03/18 03:08:47;;;;;;;1.23;1.13;;;7.70;99.90;;;;;;5031013;28;20434;-69
2023/03/18 03:11:14;;;;;;;1.55;1.23;;;7.80;99.90;;;;;;5032387;28;20441;-69
2023/03/18 03:13:44;;;;;;;1.05;0.85;;;7.80;99.90;;;;;;5032414;28;20521;-69
2023/03/18 03:16:12;;;;;;;1.38;1.27;;;7.90;99.90;;;;;;5030404;28;20506;-69
2023/03/18 03:18:40;;;;;;;0.98;0.98;;;7.80;99.90;;;;;;5032021;28;20781;-69
2023/03/18 03:21:11;;;;;;;0.85;0.85;;;7.80;99.90;;;;;;5032393;28;20465;-69
2023/03/18 03:23:40;;;;;;;2.20;1.40;;;7.70;99.90;;;;;;5032106;28;20473;-69
2023/03/18 03:26:07;;;;;;;2.20;1.48;;;7.70;99.90;;;;;;5032133;28;20611;-69
2023/03/18 03:28:33;;;;;;;1.63;1.33;;;7.60;99.90;;;;;;5032067;28;20462;-69
2023/03/18 03:31:05;;;;;;;2.10;1.25;;;7.60;99.90;;;;;;5030891;28;20552;-69
2023/03/18 03:33:32;;;;;;;1.33;1.13;;;7.50;99.90;;;;;;5030389;28;20434;-70
2023/03/18 03:35:59;;;;;;;1.50;1.35;;;7.60;99.90;;;;;;5030392;28;20512;-70
2023/03/18 03:38:25;;;;;;;2.85;1.65;;;7.60;99.90;;;;;;5031992;28;20430;-69
2023/03/18 03:40:53;;;;;;;3.75;1.30;;;7.60;99.90;;;;;;5032036;28;20512;-69
2023/03/18 03:43:20;;;;;;;2.03;1.25;;;7.60;99.90;;;;;;5031640;28;20435;-69
2023/03/18 03:45:46;;;;;;;3.15;1.63;;;7.60;99.90;;;;;;5031415;28;20522;-69
2023/03/18 03:48:13;;;;;;;1.30;1.20;;;7.60;99.90;;;;;;5029799;28;20427;-69
2023/03/18 03:50:40;;;;;;;1.70;1.17;;;7.60;1.00;;;;;;5031905;28;20427;-69
2023/03/18 03:53:09;;;;;;;1.10;1.10;;;7.60;1.00;;;;;;5031721;28;20434;-69
2023/03/18 03:55:36;;;;;;;1.80;1.42;;;7.60;1.00;;;;;;5029783;28;20439;-69
2023/03/18 03:58:03;;;;;;;2.42;1.52;;;7.60;1.00;;;;;;5031428;28;20910;-69
2023/03/18 04:00:31;;;;;;;3.03;1.33;;;7.60;1.00;;;;;;5028395;28;20493;-69
2023/03/18 04:02:59;;;;;;;0.98;0.82;;;7.50;1.00;;;;;;5031346;28;20427;-69
2023/03/18 04:05:26;;;;;;;3.50;1.67;;;7.50;1.00;;;;;;5031007;28;20435;-69
2023/03/18 04:07:54;;;;;;;3.33;1.50;;;7.50;1.00;;;;;;5031581;28;20436;-69
2023/03/18 04:10:25;;;;;;;1.95;1.60;;;7.40;1.00;;;;;;5029214;28;20559;-69
2023/03/18 04:12:53;;;;;;;2.28;1.70;;;7.40;1.00;;;;;;5031304;28;20423;-69
2023/03/18 04:15:20;;;;;;;1.00;1.00;;;7.30;1.00;;;;;;5030458;28;20522;-69
2023/03/18 04:17:50;;;;;;;1.17;1.17;;;7.30;1.00;;;;;;5031121;28;20431;-69
2023/03/18 04:20:18;;;;;;;1.48;1.10;;;7.30;1.00;;;;;;5028960;28;21111;-69
2023/03/18 04:22:44;;;;;;;1.10;1.02;;;7.30;1.00;;;;;;5031239;28;20798;-69
2023/03/18 04:25:13;;;;;;;2.00;1.40;;;7.30;1.00;;;;;;5030330;28;20522;-69
2023/03/18 04:27:40;;;;;;;1.20;1.20;;;7.30;1.00;;;;;;5031296;28;20461;-69
2023/03/18 04:30:09;;;;;;;1.10;0.90;;;7.30;1.00;;;;;;5030973;28;20442;-69
2023/03/18 04:32:36;;;;;;;1.35;1.25;;;7.20;1.00;;;;;;5030904;28;20437;-69
2023/03/18 04:35:04;;;;;;;1.00;1.00;;;7.20;1.00;;;;;;5028245;28;20513;-69
2023/03/18 04:37:35;;;;;;;1.45;1.35;;;7.10;1.00;;;;;;5029011;28;20570;-70
2023/03/18 04:40:10;;;;;;;1.75;1.10;;;6.90;1.00;;;;;;5028705;28;20434;-69
2023/03/18 04:42:38;;;;;;;1.45;1.35;;;6.90;1.00;;;;;;5030388;28;20427;-69
2023/03/18 04:45:05;;;;;;;1.52;1.25;;;6.80;1.00;;;;;;5030258;28;20430;-69
2023/03/18 04:47:39;;;;;;;1.05;1.05;;;6.80;1.00;;;;;;5028659;28;20435;-69
2023/03/18 04:50:12;;;;;;;1.67;1.60;;;6.80;1.00;;;;;;5010863;28;20440;-69
2023/03/18 04:52:40;;;;;;;2.13;1.60;;;6.80;1.00;;;;;;5010951;28;20523;-69
2023/03/18 04:55:08;;;;;;;0.82;0.73;;;6.80;1.00;;;;;;5022307;28;20438;-69
2023/03/18 04:57:37;;;;;;;1.45;1.10;;;6.80;1.00;;;;;;5029314;28;20787;-69
2023/03/18 05:00:06;;;;;;;2.10;1.57;;;6.90;1.00;;;;;;5030499;28;20423;-69
2023/03/18 05:02:38;;;;;;;1.20;1.10;;;7.00;1.00;;;;;;5030306;28;20438;-69
2023/03/18 05:05:06;;;;;;;1.73;1.50;;;7.00;1.00;;;;;;5030036;28;20913;-68
2023/03/18 05:07:36;;;;;;;1.52;0.75;;;7.00;1.00;;;;;;5027881;28;20526;-69
2023/03/18 05:10:11;;;;;;;2.78;1.45;;;7.10;1.00;;;;;;5030198;28;20525;-69
2023/03/18 05:12:41;;;;;;;1.80;1.48;;;7.20;1.00;;;;;;5029127;28;20439;-69
2023/03/18 05:15:10;;;;;;;3.53;1.85;;;7.20;1.00;;;;;;5029520;28;20435;-69
2023/03/18 05:17:40;;;;;;;1.40;1.30;;;7.10;1.00;;;;;;5030334;28;20944;-69
2023/03/18 05:20:12;;;;;;;1.45;0.90;;;7.10;1.00;;;;;;5030102;28;20466;-69
2023/03/18 05:22:39;;;;;;;1.55;1.20;;;7.10;1.00;;;;;;5030266;28;20510;-69
2023/03/18 05:25:07;;;;;;;3.03;1.20;;;7.10;1.00;;;;;;5027634;28;20435;-69
2023/03/18 05:27:34;;;;;;;1.38;1.10;;;7.00;1.00;;;;;;5029159;28;20435;-69
2023/03/18 05:30:01;;;;;;;1.52;1.40;;;6.90;1.00;;;;;;5027521;28;20430;-68
2023/03/18 05:32:28;;;;;;;1.50;1.40;;;6.70;1.00;;;;;;5030096;28;20778;-68
2023/03/18 05:34:55;;;;;;;1.10;1.00;;;6.60;1.00;;;;;;5028114;28;20442;-68
2023/03/18 05:37:21;;;;;;;2.00;1.30;;;6.50;1.00;;;;;;5030024;28;20427;-69
2023/03/18 05:39:48;;;;;;;1.27;1.27;;;6.50;1.00;;;;;;5027583;28;20952;-68
2023/03/18 05:42:16;;;;;;;2.53;1.25;;;6.40;1.00;;;;;;5029400;28;20441;-68
2023/03/18 05:44:43;;;;;;;2.00;1.90;;;6.40;1.00;;;;;;5029491;28;20435;-69
2023/03/18 05:47:10;;;;;;;1.27;1.17;;;6.30;1.00;;;;;;5029269;28;20467;-69
2023/03/18 05:49:37;;;;;;;1.20;1.20;;;6.30;1.00;;;;;;5028434;28;20431;-69
2023/03/18 05:52:04;;;;;;;5.20;1.10;;;6.30;1.00;;;;;;5028771;28;20546;-69
2023/03/18 05:54:31;;;;;;;3.13;1.38;;;6.20;1.00;;;;;;5027683;28;21012;-68
2023/03/18 05:56:58;;;;;;;1.55;1.45;;;6.20;1.00;;;;;;5026786;28;20453;-68
2023/03/18 05:59:25;;;;;;;1.15;0.88;;;6.10;1.00;;;;;;5029197;28;20462;-68
2023/03/18 06:01:52;;;;;;;1.98;1.50;;;6.20;1.00;;;;;;5029472;28;20431;-68
2023/03/18 06:04:19;;;;;;;1.73;1.63;;;6.20;1.00;;;;;;5029463;28;20438;-68
2023/03/18 06:06:50;;;;;;;3.95;1.23;;;6.40;1.00;;;;;;5028386;28;20770;-68
2023/03/18 06:09:16;;;;;;;4.60;1.60;;;6.40;1.00;;;;;;5029326;28;20433;-68
2023/03/18 06:11:44;;;;;;;2.33;1.75;;;6.50;1.00;;;;;;5027432;28;20510;-68
2023/03/18 06:14:11;;;;;;;2.25;1.83;;;6.60;7.00;;;;;;5027482;28;20442;-68
2023/03/18 06:16:42;;;;;;;4.50;1.33;;;6.60;15.90;;;;;;5028243;28;20512;-68
2023/03/18 06:19:10;;;;;;;1.23;1.05;;;6.70;24.70;;;;;;5026741;28;20435;-68
2023/03/18 06:21:40;;;;;;;6.30;1.48;;;6.70;28.10;;;;;;5029401;28;20430;-68
2023/03/18 06:24:08;;;;;;;3.90;2.00;;;6.80;27.10;;;;;;5028677;28;21174;-68
2023/03/18 06:26:35;;;;;;;6.78;1.67;;;6.70;27.20;;;;;;5027486;28;20445;-68
2023/03/18 06:29:04;;;;;;;1.33;1.15;;;6.80;23.90;;;;;;5029014;28;20434;-69
2023/03/18 06:31:31;;;;;;;5.82;2.10;;;6.80;24.50;;;;;;5027882;28;20469;-68
2023/03/18 06:33:57;;;;;;;4.28;1.55;;;6.90;33.50;;;;;;5025955;28;20990;-69
2023/03/18 06:36:27;;;;;;;10.27;2.03;;;7.00;46.10;;;;;;5027582;28;20427;-69
2023/03/18 06:38:54;;;;;;;4.60;2.20;;;7.00;51.00;;;;;;5027509;28;20427;-68
2023/03/18 06:41:23;;;;;;;5.40;2.20;;;7.10;56.00;;;;;;5032255;28;20428;-68
2023/03/18 06:43:51;;;;;;;4.25;1.95;;;7.10;50.70;;;;;;5030871;28;20478;-69
2023/03/18 06:46:20;;;;;;;1.83;1.73;;;7.10;38.80;;;;;;5032844;28;20469;-69
2023/03/18 06:48:47;;;;;;;1.60;1.50;;;7.10;41.00;;;;;;5032739;28;20465;-67
2023/03/18 06:51:14;;;;;;;2.35;1.83;;;7.40;72.10;;;;;;5032511;28;20809;-69
2023/03/18 06:53:41;;;;;;;0.90;0.90;;;7.80;95.90;;;;;;5030284;28;20433;-68
2023/03/18 06:56:08;;;;;;;3.07;1.53;;;8.20;99.90;;;;;;5032315;28;20434;-69
2023/03/18 06:58:35;;;;;;;1.63;1.42;;;8.40;92.90;;;;;;5026523;28;20460;-69
2023/03/18 07:01:02;;;;;;;2.37;1.57;;;8.50;85.60;;;;;;5012919;28;20447;-67
2023/03/18 07:03:29;;;;;;;1.20;1.10;;;8.80;93.30;;;;;;5029322;28;20555;-69
2023/03/18 07:05:56;;;;;;;2.25;1.55;;;9.10;95.80;;;;;;5032247;28;20441;-67
2023/03/18 07:08:23;;;;;;;2.10;1.60;;;9.70;99.90;;;;;;5032485;28;20549;-68
2023/03/18 07:10:53;;;;;;;1.90;1.23;;;10.20;99.90;;;;;;5032586;28;20439;-67
2023/03/18 07:13:23;;;;;;;1.87;1.77;;;10.80;82.10;;;;;;5032313;28;20445;-67
2023/03/18 07:15:55;;;;;;;2.38;1.73;;;11.10;1.00;;;;;;5030537;28;20781;-67
2023/03/18 07:18:23;;;;;;;5.72;2.40;;;11.30;99.90;;;;;;5032081;28;20457;-66
2023/03/18 07:20:49;;;;;;;1.85;1.67;;;11.60;99.90;;;;;;5030671;28;20438;-67
2023/03/18 07:23:19;;;;;;;3.58;2.47;;;12.00;99.90;;;;;;5030985;28;20466;-67
2023/03/18 07:25:46;;;;;;;2.40;2.20;;;12.60;99.90;;;;;;5031798;28;20430;-67
2023/03/18 07:28:13;;;;;;;3.30;2.08;;;13.20;99.90;;;;;;5029362;28;20513;-66
2023/03/18 07:30:39;;;;;;;2.40;2.07;;;13.60;99.90;;;;;;5031661;28;20433;-67
2023/03/18 07:33:06;;;;;;;3.10;1.83;;;14.10;99.90;;;;;;5030402;28;20439;-68
2023/03/18 07:35:33;;;;;;;3.35;2.22;;;14.50;99.90;;;;;;5029246;28;20431;-68
2023/03/18 07:38:02;;;;;;;1.70;1.60;;;;;;;;;;5031949;28;20434;-68
2023/03/18 07:40:29;;;;;;;4.07;2.27;;;;;;;;;;5031876;28;20439;-67
2023/03/18 07:42:56;;;;;;;2.25;1.95;;;;;;;;;;5031974;28;20514;-67
2023/03/18 07:45:28;;;;;;;3.20;2.50;;;;;;;;;;5031142;28;21010;-67
2023/03/18 07:47:55;;;;;;;3.65;2.40;;;;;;;;;;5029921;28;20457;-67
2023/03/18 07:50:25;;;;;;;4.85;1.88;;;;;;;;;;5030677;28;20438;-67
2023/03/18 07:52:52;;;;;;;3.17;2.07;;;;;;;;;;5031593;28;20530;-67
2023/03/18 07:55:19;;;;;;;6.03;1.92;;;;;;;;;;5028177;28;20473;-67
2023/03/18 07:57:47;;;;;;;3.23;2.33;;;;;;;;;;5011281;28;20433;-67
2023/03/18 08:00:15;;;;;;;2.15;1.75;;;;;;;;;;5031455;28;20423;-67
2023/03/18 08:02:42;;;;;;;3.40;1.85;;;;;;;;;;5031457;28;20526;-67
2023/03/18 08:05:09;;;;;;;2.00;1.88;;;14.60;99.90;;;;;;5029039;28;20434;-67
2023/03/18 08:07:37;;;;;;;2.20;1.70;;;;;;;;;;5030957;28;20434;-67
2023/03/18 08:10:04;;;;;;;1.77;1.67;;;;;;;;;;5031331;28;20513;-67
2023/03/18 08:12:32;;;;;;;1.95;1.83;;;;;;;;;;5030858;28;20505;-67
2023/03/18 08:15:18;;;;;;;3.97;1.83;;;;;;;;;;5030580;28;20916;-67
2023/03/18 08:17:46;;;;;;;2.40;1.88;;;;;;;;;;5029064;28;20437;-67
2023/03/18 08:20:14;;;;;;;3.63;1.92;;;;;;;;;;5031385;28;20426;-67
2023/03/18 08:22:41;;;;;;;1.98;1.88;;;;;;;;;;5030363;28;20431;-67
2023/03/18 08:25:08;;;;;;;2.53;1.83;;;;;;;;;;5029863;28;20418;-67
2023/03/18 08:27:35;;;;;;;1.75;1.42;;;;;;;;;;5031274;28;20435;-67
2023/03/18 08:30:03;;;;;;;2.60;2.15;;;;;;;;;;5029834;28;20427;-67
2023/03/18 08:32:31;;;;;;;2.40;2.05;;;;;;;;;;5030597;28;20431;-67
2023/03/18 08:34:58;;;;;;;2.53;1.90;;;;;;;;;;5029213;28;20775;-67
2023/03/18 08:37:28;;;;;;;2.55;1.42;;;;;;;;;;5029143;28;20435;-67
2023/03/18 08:39:58;;;;;;;2.30;1.60;;;;;;;;;;5030489;28;20430;-67
2023/03/18 08:42:27;;;;;;;5.15;1.92;;;;;;;;;;5030520;28;21168;-67
2023/03/18 08:44:55;;;;;;;1.60;1.37;;;;;;;;;;5029902;28;20971;-67
2023/03/18 08:47:26;;;;;;;7.20;1.40;;;;;;;;;;5030915;28;20438;-67
2023/03/18 08:49:53;;;;;;;2.22;1.70;;;;;;;;;;5028947;28;20443;-67
2023/03/18 08:52:21;;;;;;;5.40;2.10;;;16.20;99.90;;;;;;5028710;28;20522;-67
2023/03/18 08:54:48;;;;;;;2.25;1.80;;;14.80;99.90;;;;;;5028822;28;20422;-66
2023/03/18 08:57:14;;;;;;;2.33;1.83;;;14.80;99.90;;;;;;5030018;28;20435;-66
2023/03/18 08:59:46;;;;;;;1.95;1.77;;;15.10;99.90;;;;;;5028310;28;20747;-67
2023/03/18 09:02:17;;;;;;;1.38;1.20;;;15.10;99.90;;;;;;5030101;28;20602;-67
2023/03/18 09:04:47;;;;;;;1.27;1.17;;;14.90;99.90;;;;;;5029533;28;20466;-66
2023/03/18 09:07:14;;;;;;;1.05;1.02;;;14.70;99.90;;;;;;5027675;28;20422;-67
2023/03/18 09:09:43;;;;;;;3.40;1.10;;;14.80;99.90;;;;;;5029629;28;20437;-70
2023/03/18 09:12:11;;;;;;;2.70;0.73;;;14.70;99.90;;;;;;5027796;28;20493;-67
2023/03/18 09:14:39;;;;;;;2.07;1.60;;;14.80;99.90;;;;;;5029441;28;20492;-67
2023/03/18 09:17:06;;;;;;;8.85;1.10;;;15.20;99.90;;;;;;5027452;28;20430;-67
2023/03/18 09:19:32;;;;;;;0.70;0.70;;;15.30;99.90;;;;;;5030232;28;20427;-67
2023/03/18 09:21:59;;;;;;;0.90;0.90;;;15.70;99.90;;;;;;5029742;28;20435;-67
2023/03/18 09:24:26;;;;;;;0.98;0.98;;;;;;;;;;5028151;28;20434;-67
2023/03/18 09:26:53;;;;;;;0.95;0.63;;;;;;;;;;5029570;28;20435;-67
2023/03/18 09:29:20;;;;;;;0.67;0.53;;;16.00;99.90;;;;;;5029453;28;20434;-67
2023/03/18 09:31:47;;;;;;;3.50;0.93;;;17.20;99.90;;;;;;5029737;28;20546;-67
2023/03/18 09:34:14;;;;;;;2.55;1.77;;;17.60;99.90;;;;;;5029435;28;20441;-67
2023/03/18 09:36:48;;;;;;;0.90;0.60;;;17.50;99.90;;;;;;5029690;28;20427;-67
2023/03/18 09:39:14;;;;;;;7.05;2.70;;;17.40;99.90;;;;;;5029845;28;20431;-67
2023/03/18 09:42:00;;;;;;;7.18;3.03;;;17.00;99.90;;;;;;5028371;28;20798;-67
2023/03/18 09:44:33;;;;;;;6.00;2.95;;;16.80;99.90;;;;;;5028954;28;20438;-67
2023/03/18 09:47:17;;;;;;;2.75;1.40;;;16.60;99.90;;;;;;5028069;28;20932;-67
2023/03/18 09:50:17;;;;;;;6.75;2.85;;;16.60;99.90;;;;;;5029469;28;20435;-67
2023/03/18 09:53:02;;;;;;;1.87;1.77;;;16.90;99.90;;;;;;5029552;28;20430;-67
2023/03/18 09:55:39;;;;;;;1.90;1.33;;;17.00;99.90;;;;;;5025970;28;20798;-67
2023/03/18 09:58:40;;;;;;;2.70;1.30;;;17.30;99.90;;;;;;5029422;28;20430;-67
2023/03/18 10:01:10;;;;;;;1.38;0.65;;;17.90;99.90;;;;;;5025664;28;20430;-67
2023/03/18 10:03:53;;;;;;;0.88;0.88;;;18.30;99.90;;;;;;5029505;28;20422;-67
2023/03/18 10:06:22;;;;;;;1.35;1.30;;;18.50;99.90;;;;;;5029433;28;20489;-67
2023/03/18 10:09:04;;;;;;;0.82;0.82;;;18.40;99.90;;;;;;5029574;28;20445;-67
2023/03/18 10:11:36;;;;;;;0.80;0.80;;;18.50;99.90;;;;;;5027433;28;20458;-67
2023/03/18 10:14:21;;;;;;;0.63;0.63;;;18.80;99.90;;;;;;5028564;28;20445;-67
2023/03/18 10:17:00;;;;;;;0.73;0.73;;;18.90;99.90;;;;;;5030315;28;20426;-67
2023/03/18 10:19:30;;;;;;;0.77;0.77;;;19.00;99.90;;;;;;5033340;28;20429;-67
2023/03/18 10:22:18;;;;;;;0.73;0.65;;;19.50;99.90;;;;;;5033258;28;20426;-67
2023/03/18 10:24:56;;;;;;;1.40;0.80;;;19.40;99.90;;;;;;5032649;28;20794;-67
2023/03/18 10:27:53;;;;;;;1.10;0.68;;;18.60;99.90;;;;;;5033025;28;20894;-67
2023/03/18 10:30:42;;;;;;;1.73;0.70;;;18.10;99.90;;;;;;5013444;28;21022;-67
2023/03/18 10:33:23;;;;;;;0.55;0.50;;;17.60;99.90;;;;;;5027497;28;20873;-67
2023/03/18 10:36:17;;;;;;;0.82;0.52;;;17.20;99.90;;;;;;5032364;28;20431;-67
2023/03/18 10:38:49;;;;;;;0.60;0.60;;;17.80;99.90;;;;;;5032618;28;20423;-67
2023/03/18 10:41:32;;;;;;;1.40;0.70;;;18.10;99.90;;;;;;5033027;28;20769;-67
2023/03/18 10:44:22;;;;;;;0.97;0.73;;;18.20;99.90;;;;;;5029443;28;20515;-67
2023/03/18 10:46:59;;;;;;;0.95;0.60;;;18.90;99.90;;;;;;5031903;28;20822;-67
2023/03/18 10:49:37;;;;;;;0.45;0.45;;;19.80;99.90;;;;;;5032594;28;20430;-67
2023/03/18 10:52:37;;;;;;;0.90;0.60;;;20.80;99.90;;;;;;5031000;28;20763;-67
2023/03/18 10:55:13;;;;;;;1.40;0.70;;;21.60;99.90;;;;;;5031341;28;20431;-67
2023/03/18 10:57:40;;;;;;;2.28;0.70;;;21.70;99.90;;;;;;5030867;28;20426;-67
2023/03/18 11:00:31;;;;;;;1.87;0.50;;;22.00;99.90;;;;;;5032194;28;20882;-67
2023/03/18 11:03:00;;;;;;;0.40;0.40;;;22.00;99.90;;;;;;5031607;28;20434;-67
2023/03/18 11:05:36;;;;;;;0.70;0.70;;;22.30;99.90;;;;;;5029969;28;21138;-67
2023/03/18 11:08:03;;;;;;;1.20;0.70;;;21.90;99.90;;;;;;5031119;28;20778;-67
2023/03/18 11:10:39;;;;;;;1.40;0.70;;;21.30;99.90;;;;;;5011157;28;20436;-67
2023/03/18 11:13:18;;;;;;;0.60;0.60;;;20.90;99.90;;;;;;5012407;28;20528;-67
2023/03/18 11:15:53;;;;;;;1.30;0.80;;;20.90;99.90;;;;;;5025188;28;20439;-67
2023/03/18 11:18:23;;;;;;;0.70;0.40;;;20.60;99.90;;;;;;5032161;28;20427;-67
2023/03/18 11:21:00;;;;;;;0.60;0.60;;;20.70;99.90;;;;;;5030436;28;20845;-67
2023/03/18 11:26:22;;;;;;;0.70;0.70;;;21.20;99.90;;;;;;5029274;28;20438;-67
2023/03/18 11:28:57;;;;;;;2.20;0.60;;;21.00;99.90;;;;;;5031986;28;21128;-67
2023/03/18 11:31:24;;;;;;;0.60;0.60;;;20.70;99.90;;;;;;5030448;28;20430;-67
2023/03/18 11:34:02;;;;;;;0.60;0.60;;;21.20;99.90;;;;;;5011599;28;20958;-67
2023/03/18 11:36:31;;;;;;;1.58;0.70;;;22.10;99.90;;;;;;5012023;28;20463;-67
2023/03/18 11:39:04;;;;;;;0.50;0.50;;;22.60;99.90;;;;;;5028268;28;20427;-67
2023/03/18 11:41:31;;;;;;;1.33;0.45;;;21.90;99.90;;;;;;5031613;28;20430;-67
2023/03/18 11:44:16;;;;;;;0.80;0.40;;;22.40;99.90;;;;;;5031417;28;20509;-67
2023/03/18 11:46:49;;;;;;;1.15;0.65;;;21.50;99.90;;;;;;5031425;28;20437;-67
2023/03/18 11:49:24;;;;;;;0.77;0.52;;;21.20;99.90;;;;;;5028463;28;20431;-68
2023/03/18 11:52:21;;;;;;;0.60;0.60;;;21.40;99.90;;;;;;5031648;28;20517;-67
2023/03/18 11:55:35;;;;;;;0.30;0.30;;;21.50;99.90;;;;;;5028919;28;20446;-67
2023/03/18 11:58:26;;;;;;;0.57;0.57;;;21.80;99.90;;;;;;5026619;28;20435;-67
2023/03/18 12:01:06;;;;;;;0.55;0.55;;;22.50;99.90;;;;;;5027236;28;20458;-67
2023/03/18 12:04:12;;;;;;;0.70;0.40;;;22.50;99.90;;;;;;5027648;28;20477;-67
2023/03/18 12:07:02;;;;;;;0.60;0.60;;;21.90;99.90;;;;;;5008540;28;20432;-67
2023/03/18 12:09:37;;;;;;;0.40;0.40;;;22.00;99.90;;;;;;5008622;28;20440;-67
2023/03/18 12:12:23;;;;;;;0.50;0.50;;;22.10;99.90;;;;;;5008623;28;20840;-67
2023/03/18 12:15:17;;;;;;;0.50;0.50;;;22.30;99.90;;;;;;5008535;28;20455;-67
2023/03/18 12:17:58;;;;;;;0.60;0.30;;;22.50;99.90;;;;;;5008399;28;20457;-67
2023/03/18 12:20:53;;;;;;;0.45;0.40;;;22.40;99.90;;;;;;5008119;28;20432;-68
2023/03/18 12:23:41;;;;;;;0.80;0.60;;;22.60;99.90;;;;;;5022103;28;20427;-67
2023/03/18 12:26:22;;;;;;;0.50;0.50;;;22.60;99.90;;;;;;5027591;28;21263;-67
2023/03/18 12:29:08;;;;;;;0.95;0.52;;;22.40;99.90;;;;;;5027842;28;20438;-67
2023/03/18 12:31:58;;;;;;;0.63;0.63;;;21.70;99.90;;;;;;5023399;28;20463;-69
2023/03/18 12:34:41;;;;;;;0.80;0.70;;;21.50;99.90;;;;;;5010540;28;20435;-67
2023/03/18 12:37:33;;;;;;;1.60;0.47;;;21.40;99.90;;;;;;5022716;28;20850;-67
2023/03/18 12:40:12;;;;;;;0.68;0.68;;;21.60;99.90;;;;;;5030765;28;20435;-68
2023/03/18 12:43:17;;;;;;;0.50;0.50;;;21.50;99.90;;;;;;5030557;28;20488;-67
2023/03/18 12:45:52;;;;;;;0.75;0.50;;;21.40;99.90;;;;;;5029158;28;20454;-68
2023/03/18 12:48:28;;;;;;;0.43;0.43;;;20.60;99.90;;;;;;5030690;28;20526;-67
2023/03/18 12:51:14;;;;;;;2.72;0.57;;;20.80;99.90;;;;;;5030216;28;20430;-67
2023/03/18 12:53:48;;;;;;;0.88;0.63;;;21.00;99.90;;;;;;5028043;28;20435;-67
2023/03/18 12:56:20;;;;;;;0.43;0.43;;;;;;;;;;5030511;28;20485;-67
2023/03/18 12:58:49;;;;;;;1.48;0.88;;;;;;;;;;5028411;28;20435;-68
2023/03/18 13:01:27;;;;;;;0.53;0.53;;;;;;;;;;5030196;28;20423;-67
2023/03/18 13:03:57;;;;;;;0.70;0.70;;;;;;;;;;5029826;28;20952;-67
2023/03/18 13:06:27;;;;;;;0.80;0.70;;;;;;;;;;5030642;28;20426;-67
2023/03/18 13:08:57;;;;;;;0.55;0.55;;;;;;;;;;5028454;28;20434;-67
2023/03/18 13:11:43;;;;;;;0.45;0.45;;;;;;;;;;5030243;28;20525;-67
2023/03/18 13:14:10;;;;;;;0.40;0.40;;;;;;;;;;5027683;28;20509;-67
2023/03/18 13:16:37;;;;;;;2.40;0.70;;;;;;;;;;5030090;28;20857;-67
2023/03/18 13:19:05;;;;;;;0.30;0.30;;;;;;;;;;5028560;28;20857;-67
2023/03/18 13:21:39;;;;;;;0.32;0.32;;;;;;;;;;5030242;28;20506;-67
2023/03/18 13:24:09;;;;;;;0.50;0.50;;;;;;;;;;5028169;28;20435;-68
2023/03/18 13:26:56;;;;;;;0.50;0.50;;;;;;;;;;5028563;28;20473;-67
2023/03/18 13:29:45;;;;;;;0.45;0.45;;;;;;;;;;5010362;28;20531;-67
2023/03/18 13:32:16;;;;;;;1.20;0.40;;;;;;;;;;5010434;28;20444;-67
2023/03/18 13:34:49;;;;;;;0.88;0.30;;;;;;;;;;5009754;28;20437;-67
2023/03/18 13:37:22;;;;;;;0.20;0.20;;;;;;;;;;5009719;28;20436;-67